sensor_id;sensor_type;location;lat;lon;timestamp;temperature;humidity
38936;DHT22;25541;47.458;9.644;2022-12-07T03:54:46;3.80;90.90
38936;DHT22;25541;47.458;9.644;2022-12-07T03:57:09;3.80;91.20
38936;DHT22;25541;47.458;9.644;2022-12-07T03:59:38;3.90;90.70
38936;DHT22;25541;47.458;9.644;2022-12-07T04:02:06;3.90;91.00
38936;DHT22;25541;47.458;9.644;2022-12-07T04:04:32;3.90;91.20
38936;DHT22;25541;47.458;9.644;2022-12-07T04:06:59;3.90;90.90
38936;DHT22;25541;47.458;9.644;2022-12-07T04:09:24;3.90;90.80
38936;DHT22;25541;47.458;9.644;2022-12-07T04:11:50;3.90;90.60
38936;DHT22;25541;47.458;9.644;2022-12-07T04:14:16;3.90;90.60
38936;DHT22;25541;47.458;9.644;2022-12-07T04:16:48;3.90;90.60
38936;DHT22;25541;47.458;9.644;2022-12-07T04:19:15;3.80;90.80
38936;DHT22;25541;47.458;9.644;2022-12-07T04:21:40;3.90;90.70
38936;DHT22;25541;47.458;9.644;2022-12-07T04:24:06;3.90;90.80
38936;DHT22;25541;47.458;9.644;2022-12-07T04:26:32;3.90;90.80
38936;DHT22;25541;47.458;9.644;2022-12-07T04:28:58;3.90;90.80
38936;DHT22;25541;47.458;9.644;2022-12-07T04:31:23;3.90;91.00
38936;DHT22;25541;47.458;9.644;2022-12-07T04:33:49;4.00;91.00
38936;DHT22;25541;47.458;9.644;2022-12-07T04:36:14;4.00;91.10
38936;DHT22;25541;47.458;9.644;2022-12-07T04:38:40;4.10;90.80
38936;DHT22;25541;47.458;9.644;2022-12-07T04:41:07;4.10;90.70
38936;DHT22;25541;47.458;9.644;2022-12-07T04:43:33;4.10;91.00
38936;DHT22;25541;47.458;9.644;2022-12-07T04:45:59;4.20;90.70
38936;DHT22;25541;47.458;9.644;2022-12-07T04:48:25;4.20;90.80
38936;DHT22;25541;47.458;9.644;2022-12-07T04:50:51;4.30;90.80
38936;DHT22;25541;47.458;9.644;2022-12-07T04:53:16;4.30;90.60
38936;DHT22;25541;47.458;9.644;2022-12-07T04:55:43;4.30;90.60
38936;DHT22;25541;47.458;9.644;2022-12-07T04:58:09;4.20;90.90
38936;DHT22;25541;47.458;9.644;2022-12-07T05:00:34;4.20;91.40
38936;DHT22;25541;47.458;9.644;2022-12-07T05:03:00;4.10;91.40
38936;DHT22;25541;47.458;9.644;2022-12-07T05:05:25;4.10;91.80
38936;DHT22;25541;47.458;9.644;2022-12-07T05:07:51;4.10;92.00
38936;DHT22;25541;47.458;9.644;2022-12-07T05:10:17;4.10;92.10
38936;DHT22;25541;47.458;9.644;2022-12-07T05:12:42;4.00;92.20
38936;DHT22;25541;47.458;9.644;2022-12-07T05:15:08;3.90;92.60
38936;DHT22;25541;47.458;9.644;2022-12-07T05:17:34;3.80;92.60
38936;DHT22;25541;47.458;9.644;2022-12-07T05:20:00;3.80;92.90
38936;DHT22;25541;47.458;9.644;2022-12-07T05:22:25;3.80;93.00
38936;DHT22;25541;47.458;9.644;2022-12-07T05:24:54;3.70;93.20
38936;DHT22;25541;47.458;9.644;2022-12-07T05:27:20;3.60;93.50
38936;DHT22;25541;47.458;9.644;2022-12-07T05:29:46;3.60;93.80
38936;DHT22;25541;47.458;9.644;2022-12-07T05:32:11;3.50;94.40
38936;DHT22;25541;47.458;9.644;2022-12-07T05:34:37;3.50;94.40
38936;DHT22;25541;47.458;9.644;2022-12-07T05:37:03;3.60;94.60
38936;DHT22;25541;47.458;9.644;2022-12-07T05:39:28;3.50;94.30
38936;DHT22;25541;47.458;9.644;2022-12-07T05:41:54;3.50;94.70
38936;DHT22;25541;47.458;9.644;2022-12-07T05:44:44;3.50;94.60
38936;DHT22;25541;47.458;9.644;2022-12-07T05:47:14;3.50;95.10
38936;DHT22;25541;47.458;9.644;2022-12-07T05:49:40;3.60;95.20
38936;DHT22;25541;47.458;9.644;2022-12-07T05:52:06;3.60;94.90
38936;DHT22;25541;47.458;9.644;2022-12-07T05:54:33;3.60;95.10
38936;DHT22;25541;47.458;9.644;2022-12-07T05:56:58;3.60;95.00
38936;DHT22;25541;47.458;9.644;2022-12-07T05:59:24;3.60;95.30
38936;DHT22;25541;47.458;9.644;2022-12-07T06:04:30;3.60;95.50
38936;DHT22;25541;47.458;9.644;2022-12-07T06:06:56;3.70;95.00
38936;DHT22;25541;47.458;9.644;2022-12-07T06:09:23;3.60;95.10
38936;DHT22;25541;47.458;9.644;2022-12-07T06:11:49;3.60;95.50
38936;DHT22;25541;47.458;9.644;2022-12-07T06:14:34;3.70;95.50
38936;DHT22;25541;47.458;9.644;2022-12-07T06:17:00;3.70;95.70
38936;DHT22;25541;47.458;9.644;2022-12-07T06:19:26;3.70;95.60
38936;DHT22;25541;47.458;9.644;2022-12-07T06:21:51;3.70;95.70
38936;DHT22;25541;47.458;9.644;2022-12-07T06:24:18;3.70;95.80
38936;DHT22;25541;47.458;9.644;2022-12-07T06:26:44;3.80;95.80
38936;DHT22;25541;47.458;9.644;2022-12-07T06:29:11;3.90;96.00
38936;DHT22;25541;47.458;9.644;2022-12-07T06:31:37;3.90;95.70
38936;DHT22;25541;47.458;9.644;2022-12-07T06:34:05;3.90;96.20
38936;DHT22;25541;47.458;9.644;2022-12-07T06:36:32;3.90;95.50
38936;DHT22;25541;47.458;9.644;2022-12-07T06:38:57;3.80;95.90
38936;DHT22;25541;47.458;9.644;2022-12-07T06:41:23;3.80;96.10
38936;DHT22;25541;47.458;9.644;2022-12-07T06:43:49;3.70;96.20
38936;DHT22;25541;47.458;9.644;2022-12-07T06:46:16;3.70;96.20
38936;DHT22;25541;47.458;9.644;2022-12-07T06:48:43;3.70;96.30
38936;DHT22;25541;47.458;9.644;2022-12-07T06:51:09;3.60;96.40
38936;DHT22;25541;47.458;9.644;2022-12-07T06:53:35;3.60;96.70
38936;DHT22;25541;47.458;9.644;2022-12-07T06:56:01;3.60;96.70
38936;DHT22;25541;47.458;9.644;2022-12-07T06:58:27;3.60;96.70
38936;DHT22;25541;47.458;9.644;2022-12-07T07:00:53;3.70;96.70
38936;DHT22;25541;47.458;9.644;2022-12-07T07:03:19;3.70;97.00
38936;DHT22;25541;47.458;9.644;2022-12-07T07:05:45;3.70;96.70
38936;DHT22;25541;47.458;9.644;2022-12-07T07:08:11;3.70;96.90
38936;DHT22;25541;47.458;9.644;2022-12-07T07:10:37;3.70;96.90
38936;DHT22;25541;47.458;9.644;2022-12-07T07:13:03;3.70;96.80
38936;DHT22;25541;47.458;9.644;2022-12-07T07:15:29;3.60;96.80
38936;DHT22;25541;47.458;9.644;2022-12-07T07:17:55;3.60;97.00
38936;DHT22;25541;47.458;9.644;2022-12-07T07:20:21;3.60;96.70
38936;DHT22;25541;47.458;9.644;2022-12-07T07:22:48;3.70;96.90
38936;DHT22;25541;47.458;9.644;2022-12-07T07:25:14;3.70;96.70
38936;DHT22;25541;47.458;9.644;2022-12-07T07:27:40;3.60;95.90
38936;DHT22;25541;47.458;9.644;2022-12-07T07:30:06;3.50;95.90
38936;DHT22;25541;47.458;9.644;2022-12-07T07:32:32;3.40;96.30
38936;DHT22;25541;47.458;9.644;2022-12-07T07:34:58;3.40;96.70
38936;DHT22;25541;47.458;9.644;2022-12-07T07:37:23;3.30;96.40
38936;DHT22;25541;47.458;9.644;2022-12-07T07:39:49;3.30;96.50
38936;DHT22;25541;47.458;9.644;2022-12-07T07:42:15;3.20;96.50
38936;DHT22;25541;47.458;9.644;2022-12-07T07:44:41;3.30;96.60
38936;DHT22;25541;47.458;9.644;2022-12-07T07:47:06;3.30;96.50
38936;DHT22;25541;47.458;9.644;2022-12-07T07:49:32;3.30;96.50
38936;DHT22;25541;47.458;9.644;2022-12-07T07:51:57;3.30;96.80
38936;DHT22;25541;47.458;9.644;2022-12-07T07:54:23;3.30;96.80
38936;DHT22;25541;47.458;9.644;2022-12-07T07:56:49;3.30;97.00
38936;DHT22;25541;47.458;9.644;2022-12-07T07:59:15;3.30;96.70
38936;DHT22;25541;47.458;9.644;2022-12-07T08:01:41;3.30;96.90
38936;DHT22;25541;47.458;9.644;2022-12-07T08:04:06;3.40;97.00
38936;DHT22;25541;47.458;9.644;2022-12-07T08:06:32;3.40;96.90
38936;DHT22;25541;47.458;9.644;2022-12-07T08:08:58;3.40;96.80
38936;DHT22;25541;47.458;9.644;2022-12-07T08:11:24;3.40;97.10
38936;DHT22;25541;47.458;9.644;2022-12-07T08:13:50;3.50;96.90
38936;DHT22;25541;47.458;9.644;2022-12-07T08:16:16;3.50;97.10
38936;DHT22;25541;47.458;9.644;2022-12-07T08:18:42;3.50;97.50
38936;DHT22;25541;47.458;9.644;2022-12-07T08:21:12;3.60;97.40
38936;DHT22;25541;47.458;9.644;2022-12-07T08:23:38;3.60;97.40
38936;DHT22;25541;47.458;9.644;2022-12-07T08:26:06;3.60;97.50
38936;DHT22;25541;47.458;9.644;2022-12-07T08:28:32;3.70;97.30
38936;DHT22;25541;47.458;9.644;2022-12-07T08:31:03;3.70;97.10
38936;DHT22;25541;47.458;9.644;2022-12-07T08:33:28;3.70;96.70
38936;DHT22;25541;47.458;9.644;2022-12-07T08:35:54;3.60;96.80
38936;DHT22;25541;47.458;9.644;2022-12-07T08:38:20;3.60;96.40
38936;DHT22;25541;47.458;9.644;2022-12-07T08:40:54;3.60;96.50
38936;DHT22;25541;47.458;9.644;2022-12-07T08:43:20;3.60;96.30
38936;DHT22;25541;47.458;9.644;2022-12-07T08:45:47;3.60;96.50
38936;DHT22;25541;47.458;9.644;2022-12-07T08:48:16;3.60;96.20
38936;DHT22;25541;47.458;9.644;2022-12-07T08:50:47;3.60;96.50
38936;DHT22;25541;47.458;9.644;2022-12-07T08:53:13;3.60;96.30
38936;DHT22;25541;47.458;9.644;2022-12-07T08:55:39;3.70;96.60
38936;DHT22;25541;47.458;9.644;2022-12-07T08:58:05;3.80;96.20
38936;DHT22;25541;47.458;9.644;2022-12-07T09:00:31;3.80;96.40
38936;DHT22;25541;47.458;9.644;2022-12-07T09:02:57;3.80;96.10
38936;DHT22;25541;47.458;9.644;2022-12-07T09:05:22;3.80;95.70
38936;DHT22;25541;47.458;9.644;2022-12-07T09:07:51;3.80;95.90
38936;DHT22;25541;47.458;9.644;2022-12-07T09:10:18;3.90;96.10
38936;DHT22;25541;47.458;9.644;2022-12-07T09:12:44;3.90;95.70
38936;DHT22;25541;47.458;9.644;2022-12-07T09:15:09;3.80;96.00
38936;DHT22;25541;47.458;9.644;2022-12-07T09:17:36;4.00;96.20
38936;DHT22;25541;47.458;9.644;2022-12-07T09:20:04;4.00;95.50
38936;DHT22;25541;47.458;9.644;2022-12-07T09:22:31;4.00;95.30
38936;DHT22;25541;47.458;9.644;2022-12-07T09:24:58;4.00;95.10
38936;DHT22;25541;47.458;9.644;2022-12-07T09:27:24;4.00;95.30
38936;DHT22;25541;47.458;9.644;2022-12-07T09:29:50;4.00;95.00
38936;DHT22;25541;47.458;9.644;2022-12-07T09:32:16;4.00;95.20
38936;DHT22;25541;47.458;9.644;2022-12-07T09:34:42;4.00;95.10
38936;DHT22;25541;47.458;9.644;2022-12-07T09:37:07;4.00;95.50
38936;DHT22;25541;47.458;9.644;2022-12-07T09:39:33;4.10;95.00
38936;DHT22;25541;47.458;9.644;2022-12-07T09:41:59;4.20;94.90
38936;DHT22;25541;47.458;9.644;2022-12-07T09:44:28;4.20;94.80
38936;DHT22;25541;47.458;9.644;2022-12-07T09:46:55;4.30;94.90
38936;DHT22;25541;47.458;9.644;2022-12-07T09:49:23;4.30;94.60
38936;DHT22;25541;47.458;9.644;2022-12-07T09:52:18;4.30;94.70
38936;DHT22;25541;47.458;9.644;2022-12-07T09:54:48;4.40;94.40
38936;DHT22;25541;47.458;9.644;2022-12-07T09:57:15;4.30;94.40
38936;DHT22;25541;47.458;9.644;2022-12-07T09:59:41;4.30;94.90
38936;DHT22;25541;47.458;9.644;2022-12-07T10:02:37;4.40;95.20
38936;DHT22;25541;47.458;9.644;2022-12-07T10:05:10;4.40;94.40
38936;DHT22;25541;47.458;9.644;2022-12-07T10:07:37;4.40;94.40
38936;DHT22;25541;47.458;9.644;2022-12-07T10:10:05;4.50;94.90
38936;DHT22;25541;47.458;9.644;2022-12-07T10:12:56;4.50;94.50
38936;DHT22;25541;47.458;9.644;2022-12-07T10:15:22;4.60;93.90
38936;DHT22;25541;47.458;9.644;2022-12-07T10:17:51;4.60;93.80
38936;DHT22;25541;47.458;9.644;2022-12-07T10:20:26;4.50;93.40
38936;DHT22;25541;47.458;9.644;2022-12-07T10:22:58;4.50;93.80
38936;DHT22;25541;47.458;9.644;2022-12-07T10:25:27;4.50;94.00
38936;DHT22;25541;47.458;9.644;2022-12-07T10:28:23;4.50;93.60
38936;DHT22;25541;47.458;9.644;2022-12-07T10:33:37;4.70;93.60
38936;DHT22;25541;47.458;9.644;2022-12-07T10:36:33;4.70;93.70
38936;DHT22;25541;47.458;9.644;2022-12-07T10:39:09;4.70;93.30
38936;DHT22;25541;47.458;9.644;2022-12-07T10:41:38;4.80;93.20
38936;DHT22;25541;47.458;9.644;2022-12-07T10:44:22;4.80;92.60
38936;DHT22;25541;47.458;9.644;2022-12-07T10:55:23;4.80;92.10
38936;DHT22;25541;47.458;9.644;2022-12-07T10:58:13;4.80;91.90
38936;DHT22;25541;47.458;9.644;2022-12-07T11:01:13;4.80;91.90
38936;DHT22;25541;47.458;9.644;2022-12-07T11:06:34;4.70;91.70
38936;DHT22;25541;47.458;9.644;2022-12-07T11:14:28;4.60;91.90
38936;DHT22;25541;47.458;9.644;2022-12-07T11:17:01;4.60;92.20
38936;DHT22;25541;47.458;9.644;2022-12-07T11:22:58;4.70;92.20
38936;DHT22;25541;47.458;9.644;2022-12-07T11:26:07;4.70;91.90
38936;DHT22;25541;47.458;9.644;2022-12-07T11:36:44;4.80;91.50
38936;DHT22;25541;47.458;9.644;2022-12-07T11:41:52;5.00;91.20
38936;DHT22;25541;47.458;9.644;2022-12-07T11:44:25;5.00;90.90
38936;DHT22;25541;47.458;9.644;2022-12-07T11:47:06;5.10;91.20
38936;DHT22;25541;47.458;9.644;2022-12-07T11:55:00;5.40;90.30
38936;DHT22;25541;47.458;9.644;2022-12-07T11:57:37;5.50;89.80
38936;DHT22;25541;47.458;9.644;2022-12-07T12:00:09;5.40;90.20
38936;DHT22;25541;47.458;9.644;2022-12-07T12:03:01;5.40;90.40
38936;DHT22;25541;47.458;9.644;2022-12-07T12:05:30;5.50;89.80
38936;DHT22;25541;47.458;9.644;2022-12-07T12:19:11;5.30;90.30
38936;DHT22;25541;47.458;9.644;2022-12-07T12:21:41;5.30;90.60
38936;DHT22;25541;47.458;9.644;2022-12-07T12:24:16;5.30;90.80
38936;DHT22;25541;47.458;9.644;2022-12-07T12:27:37;5.40;90.80
38936;DHT22;25541;47.458;9.644;2022-12-07T12:29:44;5.40;90.40
38936;DHT22;25541;47.458;9.644;2022-12-07T12:32:19;5.40;90.40
38936;DHT22;25541;47.458;9.644;2022-12-07T12:37:43;5.30;90.50
38936;DHT22;25541;47.458;9.644;2022-12-07T12:42:49;5.10;90.40
38936;DHT22;25541;47.458;9.644;2022-12-07T12:45:30;5.10;90.90
38936;DHT22;25541;47.458;9.644;2022-12-07T12:48:03;5.10;91.20
38936;DHT22;25541;47.458;9.644;2022-12-07T12:52:55;5.30;91.50
38936;DHT22;25541;47.458;9.644;2022-12-07T13:00:46;5.40;91.10
38936;DHT22;25541;47.458;9.644;2022-12-07T13:03:26;5.40;91.20
38936;DHT22;25541;47.458;9.644;2022-12-07T13:06:19;5.50;91.10
38936;DHT22;25541;47.458;9.644;2022-12-07T13:08:45;5.50;91.00
38936;DHT22;25541;47.458;9.644;2022-12-07T13:11:31;5.50;91.40
38936;DHT22;25541;47.458;9.644;2022-12-07T13:14:39;5.60;91.20
38936;DHT22;25541;47.458;9.644;2022-12-07T13:17:56;5.60;91.40
38936;DHT22;25541;47.458;9.644;2022-12-07T13:19:56;5.60;91.30
38936;DHT22;25541;47.458;9.644;2022-12-07T13:25:05;5.60;91.50
38936;DHT22;25541;47.458;9.644;2022-12-07T13:27:34;5.60;91.30
38936;DHT22;25541;47.458;9.644;2022-12-07T13:30:18;5.60;91.60
38936;DHT22;25541;47.458;9.644;2022-12-07T13:32:54;5.60;91.30
38936;DHT22;25541;47.458;9.644;2022-12-07T13:35:34;5.60;91.30
38936;DHT22;25541;47.458;9.644;2022-12-07T13:38:05;5.50;91.10
38936;DHT22;25541;47.458;9.644;2022-12-07T13:40:31;5.40;91.30
38936;DHT22;25541;47.458;9.644;2022-12-07T13:43:04;5.30;91.60
38936;DHT22;25541;47.458;9.644;2022-12-07T13:45:38;5.40;91.70
38936;DHT22;25541;47.458;9.644;2022-12-07T13:48:52;5.50;91.60
38936;DHT22;25541;47.458;9.644;2022-12-07T13:51:28;5.50;91.10
38936;DHT22;25541;47.458;9.644;2022-12-07T13:53:56;5.50;91.20
38936;DHT22;25541;47.458;9.644;2022-12-07T13:56:34;5.60;91.30
38936;DHT22;25541;47.458;9.644;2022-12-07T13:59:01;5.60;90.70
38936;DHT22;25541;47.458;9.644;2022-12-07T14:01:27;5.60;91.10
38936;DHT22;25541;47.458;9.644;2022-12-07T14:03:55;5.60;91.00
38936;DHT22;25541;47.458;9.644;2022-12-07T14:06:25;5.70;90.80
38936;DHT22;25541;47.458;9.644;2022-12-07T14:09:20;5.60;91.00
38936;DHT22;25541;47.458;9.644;2022-12-07T14:11:49;5.60;91.00
38936;DHT22;25541;47.458;9.644;2022-12-07T14:14:21;5.60;91.00
38936;DHT22;25541;47.458;9.644;2022-12-07T14:17:02;5.60;91.10
38936;DHT22;25541;47.458;9.644;2022-12-07T14:22:31;5.60;91.30
38936;DHT22;25541;47.458;9.644;2022-12-07T14:25:22;5.50;91.30
38936;DHT22;25541;47.458;9.644;2022-12-07T14:27:49;5.50;91.30
38936;DHT22;25541;47.458;9.644;2022-12-07T14:30:16;5.60;91.30
38936;DHT22;25541;47.458;9.644;2022-12-07T14:32:43;5.60;91.20
38936;DHT22;25541;47.458;9.644;2022-12-07T14:35:15;5.60;91.10
38936;DHT22;25541;47.458;9.644;2022-12-07T14:37:45;5.50;91.20
38936;DHT22;25541;47.458;9.644;2022-12-07T14:40:19;5.60;91.30
38936;DHT22;25541;47.458;9.644;2022-12-07T14:42:47;5.60;91.50
38936;DHT22;25541;47.458;9.644;2022-12-07T14:45:16;5.60;90.90
38936;DHT22;25541;47.458;9.644;2022-12-07T14:47:43;5.60;90.60
38936;DHT22;25541;47.458;9.644;2022-12-07T14:50:12;5.50;90.90
38936;DHT22;25541;47.458;9.644;2022-12-07T14:52:39;5.50;90.80
38936;DHT22;25541;47.458;9.644;2022-12-07T14:55:09;5.40;91.10
38936;DHT22;25541;47.458;9.644;2022-12-07T14:57:37;5.40;91.30
38936;DHT22;25541;47.458;9.644;2022-12-07T15:00:03;5.50;91.70
38936;DHT22;25541;47.458;9.644;2022-12-07T15:02:29;5.50;91.80
38936;DHT22;25541;47.458;9.644;2022-12-07T15:04:55;5.50;92.00
38936;DHT22;25541;47.458;9.644;2022-12-07T15:07:21;5.60;91.60
38936;DHT22;25541;47.458;9.644;2022-12-07T15:09:48;5.70;91.20
38936;DHT22;25541;47.458;9.644;2022-12-07T15:12:13;5.70;91.30
38936;DHT22;25541;47.458;9.644;2022-12-07T15:14:39;5.60;91.10
38936;DHT22;25541;47.458;9.644;2022-12-07T15:17:05;5.70;91.00
38936;DHT22;25541;47.458;9.644;2022-12-07T15:19:31;5.60;90.90
38936;DHT22;25541;47.458;9.644;2022-12-07T15:21:58;5.60;90.90
38936;DHT22;25541;47.458;9.644;2022-12-07T15:24:25;5.50;91.00
38936;DHT22;25541;47.458;9.644;2022-12-07T15:26:51;5.40;91.30
38936;DHT22;25541;47.458;9.644;2022-12-07T15:29:17;5.40;91.10
38936;DHT22;25541;47.458;9.644;2022-12-07T15:31:43;5.30;92.90
38936;DHT22;25541;47.458;9.644;2022-12-07T15:34:09;5.40;91.70
38936;DHT22;25541;47.458;9.644;2022-12-07T15:36:34;5.40;91.40
38936;DHT22;25541;47.458;9.644;2022-12-07T15:39:00;5.40;91.60
38936;DHT22;25541;47.458;9.644;2022-12-07T15:41:26;5.50;91.50
38936;DHT22;25541;47.458;9.644;2022-12-07T15:43:52;5.60;91.20
38936;DHT22;25541;47.458;9.644;2022-12-07T15:46:39;5.60;91.20
38936;DHT22;25541;47.458;9.644;2022-12-07T15:49:31;5.50;91.20
38936;DHT22;25541;47.458;9.644;2022-12-07T15:51:57;5.50;91.20
38936;DHT22;25541;47.458;9.644;2022-12-07T15:54:27;5.50;91.40
38936;DHT22;25541;47.458;9.644;2022-12-07T15:56:54;5.50;91.40
38936;DHT22;25541;47.458;9.644;2022-12-07T15:59:20;5.60;91.40
38936;DHT22;25541;47.458;9.644;2022-12-07T16:01:45;5.60;91.40
38936;DHT22;25541;47.458;9.644;2022-12-07T16:04:11;5.60;91.60
38936;DHT22;25541;47.458;9.644;2022-12-07T16:06:37;5.60;91.60
38936;DHT22;25541;47.458;9.644;2022-12-07T16:09:04;5.60;91.60
38936;DHT22;25541;47.458;9.644;2022-12-07T16:11:29;5.60;91.80
38936;DHT22;25541;47.458;9.644;2022-12-07T16:13:55;5.60;91.90
38936;DHT22;25541;47.458;9.644;2022-12-07T16:16:21;5.60;92.00
38936;DHT22;25541;47.458;9.644;2022-12-07T16:18:50;5.60;91.90
38936;DHT22;25541;47.458;9.644;2022-12-07T16:21:16;5.60;91.90
38936;DHT22;25541;47.458;9.644;2022-12-07T16:23:42;5.60;91.90
38936;DHT22;25541;47.458;9.644;2022-12-07T16:26:11;5.60;91.90
38936;DHT22;25541;47.458;9.644;2022-12-07T16:28:37;5.60;91.90
38936;DHT22;25541;47.458;9.644;2022-12-07T16:31:04;5.50;92.30
38936;DHT22;25541;47.458;9.644;2022-12-07T16:33:30;5.50;92.30
38936;DHT22;25541;47.458;9.644;2022-12-07T16:35:56;5.50;92.50
38936;DHT22;25541;47.458;9.644;2022-12-07T16:38:23;5.40;92.30
38936;DHT22;25541;47.458;9.644;2022-12-07T16:40:48;5.50;92.40
38936;DHT22;25541;47.458;9.644;2022-12-07T16:43:14;5.60;92.40
38936;DHT22;25541;47.458;9.644;2022-12-07T16:45:40;5.60;92.40
38936;DHT22;25541;47.458;9.644;2022-12-07T16:48:06;5.50;92.40
38936;DHT22;25541;47.458;9.644;2022-12-07T16:50:31;5.60;92.40
38936;DHT22;25541;47.458;9.644;2022-12-07T16:52:57;5.60;92.20
38936;DHT22;25541;47.458;9.644;2022-12-07T16:55:22;5.60;92.20
38936;DHT22;25541;47.458;9.644;2022-12-07T16:57:48;5.60;92.00
38936;DHT22;25541;47.458;9.644;2022-12-07T17:00:14;5.50;92.00
38936;DHT22;25541;47.458;9.644;2022-12-07T17:02:40;5.50;92.20
38936;DHT22;25541;47.458;9.644;2022-12-07T17:05:05;5.50;92.20
38936;DHT22;25541;47.458;9.644;2022-12-07T17:07:31;5.50;92.20
38936;DHT22;25541;47.458;9.644;2022-12-07T17:09:57;5.60;92.20
38936;DHT22;25541;47.458;9.644;2022-12-07T17:12:22;5.60;92.10
38936;DHT22;25541;47.458;9.644;2022-12-07T17:14:48;5.60;92.10
38936;DHT22;25541;47.458;9.644;2022-12-07T17:17:32;5.60;92.20
38936;DHT22;25541;47.458;9.644;2022-12-07T17:19:58;5.70;92.10
38936;DHT22;25541;47.458;9.644;2022-12-07T17:22:23;5.70;91.90
38936;DHT22;25541;47.458;9.644;2022-12-07T17:24:49;5.70;91.90
38936;DHT22;25541;47.458;9.644;2022-12-07T17:27:15;5.70;92.00
38936;DHT22;25541;47.458;9.644;2022-12-07T17:29:41;5.70;92.00
38936;DHT22;25541;47.458;9.644;2022-12-07T17:32:07;5.70;92.10
38936;DHT22;25541;47.458;9.644;2022-12-07T17:34:33;5.60;92.10
38936;DHT22;25541;47.458;9.644;2022-12-07T17:36:58;5.60;92.10
38936;DHT22;25541;47.458;9.644;2022-12-07T17:39:24;5.50;92.30
38936;DHT22;25541;47.458;9.644;2022-12-07T17:41:50;5.50;92.20
38936;DHT22;25541;47.458;9.644;2022-12-07T17:44:34;5.50;92.40
38936;DHT22;25541;47.458;9.644;2022-12-07T17:47:00;5.50;92.20
38936;DHT22;25541;47.458;9.644;2022-12-07T17:49:28;5.50;92.40
38936;DHT22;25541;47.458;9.644;2022-12-07T17:51:54;5.50;92.40
38936;DHT22;25541;47.458;9.644;2022-12-07T17:54:38;5.40;92.60
38936;DHT22;25541;47.458;9.644;2022-12-07T17:57:04;5.40;92.80
38936;DHT22;25541;47.458;9.644;2022-12-07T17:59:29;5.40;93.00
38936;DHT22;25541;47.458;9.644;2022-12-07T18:01:55;5.30;93.20
38936;DHT22;25541;47.458;9.644;2022-12-07T18:04:21;5.20;93.60
38936;DHT22;25541;47.458;9.644;2022-12-07T18:06:46;5.20;93.70
38936;DHT22;25541;47.458;9.644;2022-12-07T18:09:12;5.30;93.80
38936;DHT22;25541;47.458;9.644;2022-12-07T18:11:38;5.30;93.90
38936;DHT22;25541;47.458;9.644;2022-12-07T18:14:04;5.20;93.70
38936;DHT22;25541;47.458;9.644;2022-12-07T18:16:31;5.20;93.70
38936;DHT22;25541;47.458;9.644;2022-12-07T18:19:03;5.20;93.70
38936;DHT22;25541;47.458;9.644;2022-12-07T18:21:30;5.20;93.60
38936;DHT22;25541;47.458;9.644;2022-12-07T18:23:58;5.20;93.80
38936;DHT22;25541;47.458;9.644;2022-12-07T18:26:27;5.20;93.70
38936;DHT22;25541;47.458;9.644;2022-12-07T18:28:53;5.20;93.90
38936;DHT22;25541;47.458;9.644;2022-12-07T18:31:19;5.30;93.90
38936;DHT22;25541;47.458;9.644;2022-12-07T18:33:45;5.30;93.60
38936;DHT22;25541;47.458;9.644;2022-12-07T18:36:12;5.30;93.80
38936;DHT22;25541;47.458;9.644;2022-12-07T18:38:39;5.30;93.50
38936;DHT22;25541;47.458;9.644;2022-12-07T18:41:10;5.30;93.50
38936;DHT22;25541;47.458;9.644;2022-12-07T18:43:36;5.30;93.60
38936;DHT22;25541;47.458;9.644;2022-12-07T18:46:11;5.20;93.80
38936;DHT22;25541;47.458;9.644;2022-12-07T18:48:38;5.20;93.90
38936;DHT22;25541;47.458;9.644;2022-12-07T18:51:05;5.20;93.80
38936;DHT22;25541;47.458;9.644;2022-12-07T18:53:31;5.10;94.00
38936;DHT22;25541;47.458;9.644;2022-12-07T18:56:03;5.10;93.90
38936;DHT22;25541;47.458;9.644;2022-12-07T18:58:29;5.20;93.70
38936;DHT22;25541;47.458;9.644;2022-12-07T19:00:55;5.20;93.70
38936;DHT22;25541;47.458;9.644;2022-12-07T19:03:21;5.20;93.70
38936;DHT22;25541;47.458;9.644;2022-12-07T19:05:47;5.20;93.70
38936;DHT22;25541;47.458;9.644;2022-12-07T19:08:13;5.20;93.70
38936;DHT22;25541;47.458;9.644;2022-12-07T19:10:38;5.20;93.60
38936;DHT22;25541;47.458;9.644;2022-12-07T19:13:04;5.20;93.70
38936;DHT22;25541;47.458;9.644;2022-12-07T19:15:31;5.20;93.60
38936;DHT22;25541;47.458;9.644;2022-12-07T19:17:56;5.20;93.60
38936;DHT22;25541;47.458;9.644;2022-12-07T19:20:22;5.20;93.60
38936;DHT22;25541;47.458;9.644;2022-12-07T19:22:48;5.10;93.60
38936;DHT22;25541;47.458;9.644;2022-12-07T19:25:14;5.00;93.60
38936;DHT22;25541;47.458;9.644;2022-12-07T19:27:39;5.00;93.60
38936;DHT22;25541;47.458;9.644;2022-12-07T19:30:06;5.10;93.60
38936;DHT22;25541;47.458;9.644;2022-12-07T19:32:34;5.10;93.70
38936;DHT22;25541;47.458;9.644;2022-12-07T19:35:02;5.10;93.80
38936;DHT22;25541;47.458;9.644;2022-12-07T19:37:28;5.00;93.70
38936;DHT22;25541;47.458;9.644;2022-12-07T19:39:54;5.00;93.80
38936;DHT22;25541;47.458;9.644;2022-12-07T19:42:21;5.00;93.90
38936;DHT22;25541;47.458;9.644;2022-12-07T19:44:46;5.00;94.00
38936;DHT22;25541;47.458;9.644;2022-12-07T19:47:12;5.00;94.00
38936;DHT22;25541;47.458;9.644;2022-12-07T19:49:41;5.00;94.00
38936;DHT22;25541;47.458;9.644;2022-12-07T19:52:07;5.00;94.10
38936;DHT22;25541;47.458;9.644;2022-12-07T19:54:33;5.00;94.00
38936;DHT22;25541;47.458;9.644;2022-12-07T19:56:59;5.00;93.90
38936;DHT22;25541;47.458;9.644;2022-12-07T19:59:27;4.90;94.10
38936;DHT22;25541;47.458;9.644;2022-12-07T20:01:54;4.90;94.40
38936;DHT22;25541;47.458;9.644;2022-12-07T20:04:23;4.90;94.50
38936;DHT22;25541;47.458;9.644;2022-12-07T20:06:51;4.90;94.50
38936;DHT22;25541;47.458;9.644;2022-12-07T20:09:17;4.90;94.60
38936;DHT22;25541;47.458;9.644;2022-12-07T20:11:43;4.90;94.60
38936;DHT22;25541;47.458;9.644;2022-12-07T20:14:29;4.90;94.60
38936;DHT22;25541;47.458;9.644;2022-12-07T20:16:54;4.90;94.50
38936;DHT22;25541;47.458;9.644;2022-12-07T20:19:20;4.90;94.40
38936;DHT22;25541;47.458;9.644;2022-12-07T20:21:46;4.90;94.40
38936;DHT22;25541;47.458;9.644;2022-12-07T20:24:14;4.90;94.30
38936;DHT22;25541;47.458;9.644;2022-12-07T20:26:42;4.90;94.30
38936;DHT22;25541;47.458;9.644;2022-12-07T20:29:10;4.90;94.30
38936;DHT22;25541;47.458;9.644;2022-12-07T20:31:36;4.90;94.10
38936;DHT22;25541;47.458;9.644;2022-12-07T20:34:02;4.90;94.10
38936;DHT22;25541;47.458;9.644;2022-12-07T20:36:28;4.90;94.20
38936;DHT22;25541;47.458;9.644;2022-12-07T20:38:54;4.90;94.20
38936;DHT22;25541;47.458;9.644;2022-12-07T20:41:21;4.90;94.30
38936;DHT22;25541;47.458;9.644;2022-12-07T20:44:07;5.00;94.40
38936;DHT22;25541;47.458;9.644;2022-12-07T20:46:32;5.00;94.20
38936;DHT22;25541;47.458;9.644;2022-12-07T20:48:58;5.10;94.20
38936;DHT22;25541;47.458;9.644;2022-12-07T20:51:26;5.10;94.30
38936;DHT22;25541;47.458;9.644;2022-12-07T20:53:52;5.10;94.30
38936;DHT22;25541;47.458;9.644;2022-12-07T20:56:26;5.10;93.90
38936;DHT22;25541;47.458;9.644;2022-12-07T20:58:54;5.10;94.10
38936;DHT22;25541;47.458;9.644;2022-12-07T21:01:20;5.00;94.30